Time;durP1;ratioP1;P1;durP2;ratioP2;P2;SDS_P1;SDS_P2;PMS_P1;PMS_P2;Temp;Humidity;BMP_temperature;BMP_pressure;BME280_temperature;BME280_humidity;BME280_pressure;Samples;Min_cycle;Max_cycle;Signal;HPM_P1;HPM_P2
2022/12/17 13:09:15;;;;;;;;;;;15.50;35.70;;;;;;8330995;28;20408;-44
2022/12/17 13:13:21;;;;;;;;;;;15.50;35.80;;;;;;8329778;28;19917;-44
2022/12/17 13:17:27;;;;;;;;;;;15.50;35.80;;;;;;8330198;28;20014;-43
2022/12/17 13:21:30;;;;;;;;;;;15.50;35.80;;;;;;8330473;28;20366;-43
2022/12/17 13:25:30;;;;;;;;;;;15.50;35.80;;;;;;8329708;28;20297;-42
2022/12/17 13:29:32;;;;;;;;;;;15.50;35.80;;;;;;8329386;28;19921;-42
2022/12/17 13:33:38;;;;;;;;;;;15.50;35.80;;;;;;8329921;28;20000;-43
2022/12/17 13:37:54;;;;;;;;;;;15.50;35.90;;;;;;8329164;28;20024;-43
2022/12/17 13:41:55;;;;;;;;;;;15.50;35.80;;;;;;8329882;28;19997;-44
2022/12/17 13:45:55;;;;;;;;;;;15.50;35.80;;;;;;8329619;28;19917;-42
2022/12/17 13:49:57;;;;;;;;;;;15.50;35.80;;;;;;8329352;28;19969;-43
2022/12/17 13:53:59;;;;;;;;;;;15.50;35.80;;;;;;8329882;28;19988;-43
2022/12/17 13:57:59;;;;;;;;;;;15.50;35.70;;;;;;8327798;28;19957;-42
2022/12/17 14:02:00;;;;;;;;;;;15.50;35.80;;;;;;8329523;28;19917;-42
2022/12/17 14:06:00;;;;;;;;;;;15.50;35.80;;;;;;8328875;28;20319;-43
2022/12/17 14:10:01;;;;;;;;;;;15.40;35.80;;;;;;8329040;28;20371;-43
2022/12/17 14:14:02;;;;;;;;;;;15.40;35.80;;;;;;8328479;28;20079;-43
2022/12/17 14:18:03;;;;;;;;;;;15.40;35.80;;;;;;8329460;28;19949;-43
2022/12/17 14:22:04;;;;;;;;;;;15.40;35.80;;;;;;8328833;28;19913;-43
2022/12/17 14:26:04;;;;;;;;;;;15.40;35.90;;;;;;8329098;28;19913;-43
2022/12/17 14:30:19;;;;;;;;;;;15.40;36.00;;;;;;8329540;28;19917;-44
2022/12/17 14:34:20;;;;;;;;;;;15.40;35.90;;;;;;8328883;28;19925;-44
2022/12/17 14:38:20;;;;;;;;;;;15.40;36.00;;;;;;8328958;28;20312;-44
2022/12/17 14:42:31;;;;;;;;;;;15.40;36.00;;;;;;8332484;28;19917;-43
2022/12/17 14:46:33;;;;;;;;;;;15.40;35.90;;;;;;8334363;28;19917;-43
2022/12/17 14:50:34;;;;;;;;;;;15.40;36.00;;;;;;8334515;28;20006;-43
2022/12/17 14:54:35;;;;;;;;;;;15.40;35.90;;;;;;8335193;28;19929;-43
2022/12/17 14:58:43;;;;;;;;;;;15.40;35.90;;;;;;8333792;28;20278;-44
2022/12/17 15:02:46;;;;;;;;;;;15.40;35.80;;;;;;8333918;28;19963;-44
2022/12/17 15:06:48;;;;;;;;;;;15.50;36.40;;;;;;8334131;28;19921;-44
2022/12/17 15:10:48;;;;;;;;;;;15.50;35.90;;;;;;8333382;28;19924;-44
2022/12/17 15:14:49;;;;;;;;;;;15.50;35.80;;;;;;8334364;28;20381;-43
2022/12/17 15:18:49;;;;;;;;;;;15.50;35.80;;;;;;8333506;28;19917;-44
2022/12/17 15:22:50;;;;;;;;;;;15.60;35.90;;;;;;8332959;28;20398;-44
2022/12/17 15:26:50;;;;;;;;;;;15.60;35.80;;;;;;8333487;28;19983;-43
2022/12/17 15:30:51;;;;;;;;;;;15.60;35.80;;;;;;8333413;28;19917;-44
2022/12/17 15:34:51;;;;;;;;;;;15.60;35.90;;;;;;8332801;28;20047;-43
2022/12/17 15:38:52;;;;;;;;;;;15.50;35.80;;;;;;8333350;28;19924;-44
2022/12/17 15:43:10;;;;;;;;;;;15.60;35.90;;;;;;8332961;28;19959;-44
2022/12/17 15:47:11;;;;;;;;;;;15.50;35.90;;;;;;8332868;28;19943;-44
2022/12/17 15:51:11;;;;;;;;;;;15.50;35.80;;;;;;8332748;28;19964;-44
2022/12/17 15:55:12;;;;;;;;;;;15.50;36.00;;;;;;8331701;28;19921;-45
2022/12/17 15:59:12;;;;;;;;;;;15.50;35.80;;;;;;8332784;28;19918;-44
2022/12/17 16:03:12;;;;;;;;;;;15.50;35.90;;;;;;8332617;28;20007;-44
2022/12/17 16:07:13;;;;;;;;;;;15.50;35.90;;;;;;8331813;28;19917;-44
2022/12/17 16:11:14;;;;;;;;;;;15.40;35.90;;;;;;8332111;28;19948;-44
2022/12/17 16:15:15;;;;;;;;;;;15.40;35.90;;;;;;8332362;28;19925;-44
2022/12/17 16:19:16;;;;;;;;;;;15.40;36.00;;;;;;8331750;28;19921;-45
2022/12/17 16:23:16;;;;;;;;;;;15.40;36.00;;;;;;8331852;28;19917;-44
2022/12/17 16:27:17;;;;;;;;;;;15.40;36.00;;;;;;8331520;28;19932;-45
2022/12/17 16:31:18;;;;;;;;;;;15.40;36.00;;;;;;8330924;28;19925;-44
2022/12/17 16:35:18;;;;;;;;;;;15.30;35.90;;;;;;8331821;28;20359;-43
2022/12/17 16:39:19;;;;;;;;;;;15.30;35.90;;;;;;8331625;28;20374;-45
2022/12/17 16:43:19;;;;;;;;;;;15.40;36.00;;;;;;8330524;28;19917;-44
2022/12/17 16:47:19;;;;;;;;;;;15.30;35.90;;;;;;8330853;28;19917;-46
2022/12/17 16:51:21;;;;;;;;;;;15.40;36.00;;;;;;8331031;28;20003;-44
2022/12/17 16:55:21;;;;;;;;;;;15.40;36.00;;;;;;8330360;28;20345;-46
2022/12/17 16:59:22;;;;;;;;;;;15.40;35.90;;;;;;8331031;28;19924;-43
2022/12/17 17:03:22;;;;;;;;;;;15.40;35.90;;;;;;8330874;28;20005;-44
2022/12/17 17:07:23;;;;;;;;;;;15.40;35.90;;;;;;8330518;28;19952;-44
2022/12/17 17:11:24;;;;;;;;;;;15.40;36.00;;;;;;8329675;28;19913;-44
2022/12/17 17:15:25;;;;;;;;;;;15.30;35.80;;;;;;8331037;28;19932;-44
2022/12/17 17:19:25;;;;;;;;;;;15.30;35.80;;;;;;8329939;28;19917;-43
2022/12/17 17:23:25;;;;;;;;;;;15.30;35.80;;;;;;8330242;28;19967;-43
2022/12/17 17:27:26;;;;;;;;;;;15.30;35.90;;;;;;8329978;28;20006;-43
2022/12/17 17:31:27;;;;;;;;;;;15.30;35.90;;;;;;8329280;28;20003;-43
2022/12/17 17:35:27;;;;;;;;;;;15.30;35.80;;;;;;8330409;28;19932;-43
2022/12/17 17:39:31;;;;;;;;;;;15.30;35.90;;;;;;8329894;28;19917;-44
2022/12/17 17:43:32;;;;;;;;;;;15.30;36.00;;;;;;8329284;28;19977;-43
2022/12/17 17:47:32;;;;;;;;;;;15.30;35.90;;;;;;8329594;28;19924;-43
2022/12/17 17:51:34;;;;;;;;;;;15.30;35.90;;;;;;8329483;28;19982;-43
2022/12/17 17:55:35;;;;;;;;;;;15.30;35.80;;;;;;8329289;28;19925;-44
2022/12/17 17:59:35;;;;;;;;;;;15.20;35.90;;;;;;8329394;28;20008;-43
2022/12/17 18:03:36;;;;;;;;;;;15.30;35.90;;;;;;8329820;28;19920;-43
2022/12/17 18:07:37;;;;;;;;;;;15.20;35.90;;;;;;8329009;28;19917;-44
2022/12/17 18:11:38;;;;;;;;;;;15.20;35.90;;;;;;8329641;28;19923;-43
2022/12/17 18:15:38;;;;;;;;;;;15.20;35.90;;;;;;8330743;28;19928;-43
2022/12/17 18:19:39;;;;;;;;;;;15.20;35.90;;;;;;8335367;28;19925;-43
2022/12/17 18:23:40;;;;;;;;;;;15.20;35.90;;;;;;8335506;28;19917;-44
2022/12/17 18:27:41;;;;;;;;;;;15.30;35.90;;;;;;8335569;28;20267;-43
2022/12/17 18:31:41;;;;;;;;;;;15.30;35.90;;;;;;8334790;28;19917;-44
2022/12/17 18:35:42;;;;;;;;;;;15.30;35.90;;;;;;8335276;28;19948;-43
2022/12/17 18:39:42;;;;;;;;;;;15.30;35.80;;;;;;8334737;28;19917;-44
2022/12/17 18:43:43;;;;;;;;;;;15.30;35.70;;;;;;8334259;28;20259;-44
2022/12/17 18:47:43;;;;;;;;;;;15.40;35.70;;;;;;8334583;28;19913;-44
2022/12/17 18:51:44;;;;;;;;;;;15.40;35.60;;;;;;8335297;28;19921;-43
2022/12/17 18:55:45;;;;;;;;;;;15.40;35.60;;;;;;8333652;28;20013;-43
2022/12/17 18:59:45;;;;;;;;;;;15.40;35.60;;;;;;8334291;28;20325;-43
2022/12/17 19:03:46;;;;;;;;;;;15.40;35.60;;;;;;8334192;28;19917;-43
2022/12/17 19:07:46;;;;;;;;;;;15.50;35.60;;;;;;8333692;28;19917;-44
2022/12/17 19:11:47;;;;;;;;;;;15.50;35.60;;;;;;8334137;28;19913;-44
2022/12/17 19:15:48;;;;;;;;;;;15.40;35.50;;;;;;8333608;28;19999;-44
2022/12/17 19:19:48;;;;;;;;;;;15.40;35.60;;;;;;8333207;28;19999;-44
2022/12/17 19:23:49;;;;;;;;;;;15.40;35.50;;;;;;8333505;28;19921;-43
2022/12/17 19:27:49;;;;;;;;;;;15.40;35.50;;;;;;8332398;28;20290;-44
2022/12/17 19:31:50;;;;;;;;;;;15.40;35.70;;;;;;8333325;28;19913;-44
2022/12/17 19:35:50;;;;;;;;;;;15.40;35.60;;;;;;8333518;28;20442;-44
2022/12/17 19:39:51;;;;;;;;;;;15.30;35.60;;;;;;8333267;28;19917;-43
2022/12/17 19:43:52;;;;;;;;;;;15.30;35.60;;;;;;8332386;28;20004;-44
2022/12/17 19:47:53;;;;;;;;;;;15.30;35.60;;;;;;8332775;28;20004;-44
2022/12/17 19:51:54;;;;;;;;;;;15.30;35.60;;;;;;8332961;28;19977;-43
2022/12/17 19:55:55;;;;;;;;;;;15.30;35.70;;;;;;8331824;28;20062;-44
2022/12/17 19:59:55;;;;;;;;;;;15.30;35.70;;;;;;8332724;28;19971;-44
2022/12/17 20:03:56;;;;;;;;;;;15.30;35.70;;;;;;8332419;28;19940;-44
2022/12/17 20:07:57;;;;;;;;;;;15.30;35.70;;;;;;8330494;28;20036;-44
2022/12/17 20:11:58;;;;;;;;;;;15.20;35.70;;;;;;8332560;28;20414;-44
2022/12/17 20:15:59;;;;;;;;;;;15.20;35.70;;;;;;8331674;28;19932;-43
2022/12/17 20:20:00;;;;;;;;;;;15.20;35.60;;;;;;8331591;28;19921;-44
2022/12/17 20:24:00;;;;;;;;;;;15.20;35.60;;;;;;8331741;28;20307;-44
2022/12/17 20:28:00;;;;;;;;;;;15.20;35.60;;;;;;8330943;28;19925;-42
2022/12/17 20:32:01;;;;;;;;;;;15.20;35.70;;;;;;8331774;28;19913;-44
2022/12/17 20:36:05;;;;;;;;;;;15.20;35.60;;;;;;8331318;28;19925;-43
2022/12/17 20:40:06;;;;;;;;;;;15.20;35.60;;;;;;8330466;28;19918;-43
2022/12/17 20:44:09;;;;;;;;;;;15.20;35.70;;;;;;8331656;28;19944;-44
2022/12/17 20:48:10;;;;;;;;;;;15.20;35.60;;;;;;8330879;28;20404;-44
2022/12/17 20:52:10;;;;;;;;;;;15.20;35.60;;;;;;8331016;28;19921;-44
2022/12/17 20:56:12;;;;;;;;;;;15.20;35.60;;;;;;8330668;28;20014;-43
2022/12/17 21:00:12;;;;;;;;;;;15.20;35.60;;;;;;8330824;28;19951;-44
2022/12/17 21:04:13;;;;;;;;;;;15.20;35.60;;;;;;8329866;28;20366;-44
2022/12/17 21:08:14;;;;;;;;;;;15.20;35.60;;;;;;8330407;28;19983;-44
2022/12/17 21:12:14;;;;;;;;;;;15.20;35.60;;;;;;8330741;28;19936;-44
2022/12/17 21:16:16;;;;;;;;;;;15.20;35.50;;;;;;8329850;28;20452;-44
2022/12/17 21:20:17;;;;;;;;;;;15.20;35.60;;;;;;8330276;28;19917;-44
2022/12/17 21:24:17;;;;;;;;;;;15.20;35.60;;;;;;8330253;28;19925;-44
2022/12/17 21:28:17;;;;;;;;;;;15.20;35.60;;;;;;8329703;28;20343;-44
2022/12/17 21:32:18;;;;;;;;;;;15.20;35.60;;;;;;8330202;28;19956;-44
2022/12/17 21:36:20;;;;;;;;;;;15.20;35.70;;;;;;8329870;28;19932;-44
2022/12/17 21:40:20;;;;;;;;;;;15.10;35.80;;;;;;8329476;28;20017;-44
2022/12/17 21:44:21;;;;;;;;;;;15.10;35.60;;;;;;8329837;28;19921;-43
2022/12/17 21:48:21;;;;;;;;;;;15.10;35.60;;;;;;8329734;28;20382;-43
2022/12/17 21:52:22;;;;;;;;;;;15.10;35.60;;;;;;8333824;28;20374;-42
2022/12/17 21:56:22;;;;;;;;;;;15.10;35.60;;;;;;8336303;28;19925;-43
2022/12/17 22:00:23;;;;;;;;;;;15.10;35.60;;;;;;8336329;28;19913;-42
2022/12/17 22:04:24;;;;;;;;;;;15.10;35.60;;;;;;8330563;28;19923;-44
2022/12/17 22:08:24;;;;;;;;;;;15.20;35.60;;;;;;8336116;28;20377;-45
2022/12/17 22:16:47;;;;;;;;;;;15.20;35.60;;;;;;8321768;28;19971;-44
2022/12/17 22:20:58;;;;;;;;;;;15.20;35.60;;;;;;8335889;28;19964;-44
2022/12/17 22:24:58;;;;;;;;;;;15.20;35.60;;;;;;8335056;28;19917;-43
2022/12/17 22:28:59;;;;;;;;;;;15.20;35.50;;;;;;8335077;28;20269;-44
2022/12/17 22:33:01;;;;;;;;;;;15.20;35.50;;;;;;8335774;28;19917;-44
2022/12/17 22:37:01;;;;;;;;;;;15.30;35.50;;;;;;8334863;28;19925;-42
2022/12/17 22:41:03;;;;;;;;;;;15.30;35.50;;;;;;8334999;28;20427;-43
2022/12/17 22:45:06;;;;;;;;;;;15.20;35.40;;;;;;8334737;28;19963;-44
2022/12/17 22:49:07;;;;;;;;;;;15.30;35.40;;;;;;8334291;28;19925;-43
2022/12/17 22:53:08;;;;;;;;;;;15.30;35.40;;;;;;8334741;28;19921;-43
2022/12/17 22:57:08;;;;;;;;;;;15.30;35.50;;;;;;8334328;28;19934;-44
2022/12/17 23:01:08;;;;;;;;;;;15.30;35.50;;;;;;8332822;28;19913;-43
2022/12/17 23:05:09;;;;;;;;;;;15.30;35.50;;;;;;8333406;28;19948;-44
2022/12/17 23:09:10;;;;;;;;;;;15.30;35.50;;;;;;8332811;28;19924;-44
2022/12/17 23:13:10;;;;;;;;;;;15.20;35.50;;;;;;8332402;28;19922;-44
2022/12/17 23:17:11;;;;;;;;;;;15.20;35.50;;;;;;8333814;28;19932;-43
2022/12/17 23:21:13;;;;;;;;;;;15.20;35.50;;;;;;8333687;28;19924;-45
2022/12/17 23:25:13;;;;;;;;;;;15.20;35.60;;;;;;8333209;28;19914;-43
2022/12/17 23:29:14;;;;;;;;;;;15.20;35.60;;;;;;8334154;28;19935;-43
2022/12/17 23:33:15;;;;;;;;;;;15.20;35.60;;;;;;8333762;28;19940;-43
2022/12/17 23:37:15;;;;;;;;;;;15.20;35.60;;;;;;8332830;28;19925;-42
2022/12/17 23:41:19;;;;;;;;;;;15.20;35.60;;;;;;8333063;28;19924;-43
2022/12/17 23:45:20;;;;;;;;;;;15.20;35.60;;;;;;8333152;28;20444;-42
2022/12/17 23:49:20;;;;;;;;;;;15.20;35.60;;;;;;8332574;28;19917;-43
2022/12/17 23:53:21;;;;;;;;;;;15.20;35.60;;;;;;8333348;28;19946;-43
2022/12/17 23:57:21;;;;;;;;;;;15.20;35.50;;;;;;8332467;28;19929;-43
